sensor_id;sensor_type;location;lat;lon;timestamp;P1;durP1;ratioP1;P2;durP2;ratioP2
50291;SDS011;36190;54.980;73.388;2023-11-19T00:01:07;1.77;;;1.33;;
50291;SDS011;36190;54.980;73.388;2023-11-19T00:03:35;5.70;;;1.52;;
50291;SDS011;36190;54.980;73.388;2023-11-19T00:06:02;6.85;;;1.40;;
50291;SDS011;36190;54.980;73.388;2023-11-19T00:08:31;6.43;;;2.38;;
50291;SDS011;36190;54.980;73.388;2023-11-19T00:11:00;20.65;;;2.70;;
50291;SDS011;36190;54.980;73.388;2023-11-19T00:13:28;18.20;;;3.58;;
50291;SDS011;36190;54.980;73.388;2023-11-19T00:15:55;15.63;;;2.65;;
50291;SDS011;36190;54.980;73.388;2023-11-19T00:18:23;10.07;;;2.10;;
50291;SDS011;36190;54.980;73.388;2023-11-19T00:20:50;5.70;;;1.50;;
50291;SDS011;36190;54.980;73.388;2023-11-19T00:23:18;4.30;;;1.17;;
50291;SDS011;36190;54.980;73.388;2023-11-19T00:25:45;3.92;;;1.40;;
50291;SDS011;36190;54.980;73.388;2023-11-19T00:28:15;1.75;;;1.17;;
50291;SDS011;36190;54.980;73.388;2023-11-19T00:30:42;4.93;;;1.70;;
50291;SDS011;36190;54.980;73.388;2023-11-19T00:33:09;9.63;;;2.72;;
50291;SDS011;36190;54.980;73.388;2023-11-19T00:35:36;19.60;;;3.53;;
50291;SDS011;36190;54.980;73.388;2023-11-19T00:38:04;18.67;;;4.13;;
50291;SDS011;36190;54.980;73.388;2023-11-19T00:40:32;20.90;;;5.05;;
50291;SDS011;36190;54.980;73.388;2023-11-19T00:43:00;23.33;;;4.65;;
50291;SDS011;36190;54.980;73.388;2023-11-19T00:45:29;21.02;;;3.72;;
50291;SDS011;36190;54.980;73.388;2023-11-19T00:47:56;9.10;;;2.38;;
50291;SDS011;36190;54.980;73.388;2023-11-19T00:50:24;15.05;;;3.00;;
50291;SDS011;36190;54.980;73.388;2023-11-19T00:52:52;11.23;;;2.67;;
50291;SDS011;36190;54.980;73.388;2023-11-19T00:55:19;10.65;;;2.47;;
50291;SDS011;36190;54.980;73.388;2023-11-19T00:57:47;5.50;;;1.88;;
50291;SDS011;36190;54.980;73.388;2023-11-19T01:00:15;8.93;;;3.22;;
50291;SDS011;36190;54.980;73.388;2023-11-19T01:02:46;10.27;;;2.35;;
50291;SDS011;36190;54.980;73.388;2023-11-19T01:05:15;20.50;;;4.03;;
50291;SDS011;36190;54.980;73.388;2023-11-19T01:07:43;4.82;;;1.90;;
50291;SDS011;36190;54.980;73.388;2023-11-19T01:10:10;6.80;;;2.08;;
50291;SDS011;36190;54.980;73.388;2023-11-19T01:12:38;7.82;;;2.03;;
50291;SDS011;36190;54.980;73.388;2023-11-19T01:15:06;4.90;;;1.92;;
50291;SDS011;36190;54.980;73.388;2023-11-19T01:17:34;6.63;;;2.00;;
50291;SDS011;36190;54.980;73.388;2023-11-19T01:20:04;19.90;;;3.67;;
50291;SDS011;36190;54.980;73.388;2023-11-19T01:22:32;15.50;;;3.72;;
50291;SDS011;36190;54.980;73.388;2023-11-19T01:25:00;21.92;;;4.65;;
50291;SDS011;36190;54.980;73.388;2023-11-19T01:27:28;13.20;;;2.60;;
50291;SDS011;36190;54.980;73.388;2023-11-19T01:29:55;23.65;;;3.63;;
50291;SDS011;36190;54.980;73.388;2023-11-19T01:32:24;17.33;;;3.13;;
50291;SDS011;36190;54.980;73.388;2023-11-19T01:34:51;18.00;;;3.42;;
50291;SDS011;36190;54.980;73.388;2023-11-19T01:37:20;29.88;;;5.05;;
50291;SDS011;36190;54.980;73.388;2023-11-19T01:39:48;28.33;;;4.75;;
50291;SDS011;36190;54.980;73.388;2023-11-19T01:42:15;11.43;;;3.10;;
50291;SDS011;36190;54.980;73.388;2023-11-19T01:44:53;14.57;;;3.53;;
50291;SDS011;36190;54.980;73.388;2023-11-19T01:47:24;11.68;;;2.92;;
50291;SDS011;36190;54.980;73.388;2023-11-19T01:49:52;19.02;;;4.30;;
50291;SDS011;36190;54.980;73.388;2023-11-19T01:52:22;17.42;;;3.90;;
50291;SDS011;36190;54.980;73.388;2023-11-19T01:54:51;24.45;;;4.65;;
50291;SDS011;36190;54.980;73.388;2023-11-19T01:57:21;15.50;;;3.50;;
50291;SDS011;36190;54.980;73.388;2023-11-19T01:59:50;18.35;;;3.53;;
50291;SDS011;36190;54.980;73.388;2023-11-19T02:02:19;18.70;;;3.42;;
50291;SDS011;36190;54.980;73.388;2023-11-19T02:04:47;17.65;;;3.28;;
50291;SDS011;36190;54.980;73.388;2023-11-19T02:07:16;41.50;;;5.73;;
50291;SDS011;36190;54.980;73.388;2023-11-19T02:09:45;21.88;;;4.72;;
50291;SDS011;36190;54.980;73.388;2023-11-19T02:12:13;22.98;;;4.63;;
50291;SDS011;36190;54.980;73.388;2023-11-19T02:14:40;16.93;;;3.60;;
50291;SDS011;36190;54.980;73.388;2023-11-19T02:17:13;16.08;;;3.28;;
50291;SDS011;36190;54.980;73.388;2023-11-19T02:22:20;9.80;;;2.17;;
50291;SDS011;36190;54.980;73.388;2023-11-19T02:24:49;5.25;;;1.88;;
50291;SDS011;36190;54.980;73.388;2023-11-19T02:27:23;3.70;;;1.63;;
50291;SDS011;36190;54.980;73.388;2023-11-19T02:29:59;7.43;;;2.08;;
50291;SDS011;36190;54.980;73.388;2023-11-19T02:32:28;4.50;;;1.80;;
50291;SDS011;36190;54.980;73.388;2023-11-19T02:34:56;5.00;;;1.90;;
50291;SDS011;36190;54.980;73.388;2023-11-19T02:37:24;5.35;;;2.05;;
50291;SDS011;36190;54.980;73.388;2023-11-19T02:39:53;7.00;;;2.60;;
50291;SDS011;36190;54.980;73.388;2023-11-19T02:42:21;6.78;;;2.22;;
50291;SDS011;36190;54.980;73.388;2023-11-19T02:44:48;7.72;;;2.35;;
50291;SDS011;36190;54.980;73.388;2023-11-19T02:47:17;7.03;;;2.60;;
50291;SDS011;36190;54.980;73.388;2023-11-19T02:49:46;5.38;;;2.10;;
50291;SDS011;36190;54.980;73.388;2023-11-19T02:52:14;4.50;;;2.00;;
50291;SDS011;36190;54.980;73.388;2023-11-19T02:54:42;6.37;;;2.27;;
50291;SDS011;36190;54.980;73.388;2023-11-19T02:57:10;6.10;;;2.58;;
50291;SDS011;36190;54.980;73.388;2023-11-19T02:59:39;5.80;;;2.15;;
50291;SDS011;36190;54.980;73.388;2023-11-19T03:02:08;4.77;;;2.37;;
50291;SDS011;36190;54.980;73.388;2023-11-19T03:04:38;4.30;;;2.08;;
50291;SDS011;36190;54.980;73.388;2023-11-19T03:07:06;6.72;;;2.30;;
50291;SDS011;36190;54.980;73.388;2023-11-19T03:09:33;5.78;;;2.60;;
50291;SDS011;36190;54.980;73.388;2023-11-19T03:12:01;6.18;;;2.38;;
50291;SDS011;36190;54.980;73.388;2023-11-19T03:14:32;6.63;;;2.40;;
50291;SDS011;36190;54.980;73.388;2023-11-19T03:17:00;6.95;;;2.72;;
50291;SDS011;36190;54.980;73.388;2023-11-19T03:19:28;7.13;;;2.55;;
50291;SDS011;36190;54.980;73.388;2023-11-19T03:21:57;11.38;;;3.10;;
50291;SDS011;36190;54.980;73.388;2023-11-19T03:24:26;6.68;;;2.30;;
50291;SDS011;36190;54.980;73.388;2023-11-19T03:26:53;5.60;;;2.40;;
50291;SDS011;36190;54.980;73.388;2023-11-19T03:29:21;8.02;;;3.00;;
50291;SDS011;36190;54.980;73.388;2023-11-19T03:31:49;3.85;;;1.98;;
50291;SDS011;36190;54.980;73.388;2023-11-19T03:34:16;6.10;;;2.38;;
50291;SDS011;36190;54.980;73.388;2023-11-19T03:36:44;4.70;;;2.22;;
50291;SDS011;36190;54.980;73.388;2023-11-19T03:39:13;3.85;;;2.05;;
50291;SDS011;36190;54.980;73.388;2023-11-19T03:41:41;5.78;;;2.08;;
50291;SDS011;36190;54.980;73.388;2023-11-19T03:44:12;5.78;;;2.17;;
50291;SDS011;36190;54.980;73.388;2023-11-19T03:46:39;6.88;;;2.47;;
50291;SDS011;36190;54.980;73.388;2023-11-19T03:49:07;5.13;;;2.03;;
50291;SDS011;36190;54.980;73.388;2023-11-19T03:51:34;6.15;;;2.25;;
50291;SDS011;36190;54.980;73.388;2023-11-19T03:54:02;5.45;;;2.13;;
50291;SDS011;36190;54.980;73.388;2023-11-19T03:56:33;5.03;;;2.08;;
50291;SDS011;36190;54.980;73.388;2023-11-19T03:59:00;6.50;;;2.38;;
50291;SDS011;36190;54.980;73.388;2023-11-19T04:01:28;7.10;;;2.42;;
50291;SDS011;36190;54.980;73.388;2023-11-19T04:03:55;4.63;;;2.13;;
50291;SDS011;36190;54.980;73.388;2023-11-19T04:06:23;6.05;;;2.40;;
50291;SDS011;36190;54.980;73.388;2023-11-19T04:08:50;4.65;;;2.05;;
50291;SDS011;36190;54.980;73.388;2023-11-19T04:11:18;6.47;;;2.28;;
50291;SDS011;36190;54.980;73.388;2023-11-19T04:13:47;4.80;;;1.97;;
50291;SDS011;36190;54.980;73.388;2023-11-19T04:16:15;7.88;;;2.65;;
50291;SDS011;36190;54.980;73.388;2023-11-19T04:18:42;6.73;;;2.33;;
50291;SDS011;36190;54.980;73.388;2023-11-19T04:21:10;7.38;;;2.63;;
50291;SDS011;36190;54.980;73.388;2023-11-19T04:23:37;5.80;;;2.55;;
50291;SDS011;36190;54.980;73.388;2023-11-19T04:26:05;5.70;;;2.13;;
50291;SDS011;36190;54.980;73.388;2023-11-19T04:28:32;6.47;;;2.30;;
50291;SDS011;36190;54.980;73.388;2023-11-19T04:31:01;6.30;;;2.35;;
50291;SDS011;36190;54.980;73.388;2023-11-19T04:33:29;7.68;;;2.30;;
50291;SDS011;36190;54.980;73.388;2023-11-19T04:35:57;5.70;;;2.75;;
50291;SDS011;36190;54.980;73.388;2023-11-19T04:38:24;7.05;;;2.35;;
50291;SDS011;36190;54.980;73.388;2023-11-19T04:40:53;8.15;;;2.70;;
50291;SDS011;36190;54.980;73.388;2023-11-19T04:43:22;6.32;;;2.17;;
50291;SDS011;36190;54.980;73.388;2023-11-19T04:45:50;7.53;;;2.38;;
50291;SDS011;36190;54.980;73.388;2023-11-19T04:48:19;5.50;;;2.20;;
50291;SDS011;36190;54.980;73.388;2023-11-19T04:50:46;6.30;;;2.35;;
50291;SDS011;36190;54.980;73.388;2023-11-19T04:53:14;6.90;;;2.58;;
50291;SDS011;36190;54.980;73.388;2023-11-19T04:55:42;6.68;;;2.28;;
50291;SDS011;36190;54.980;73.388;2023-11-19T04:58:10;5.55;;;2.20;;
50291;SDS011;36190;54.980;73.388;2023-11-19T05:00:37;5.07;;;2.20;;
50291;SDS011;36190;54.980;73.388;2023-11-19T05:03:05;6.53;;;1.83;;
50291;SDS011;36190;54.980;73.388;2023-11-19T05:05:35;4.57;;;2.10;;
50291;SDS011;36190;54.980;73.388;2023-11-19T05:08:02;7.15;;;2.22;;
50291;SDS011;36190;54.980;73.388;2023-11-19T05:10:30;10.52;;;2.53;;
50291;SDS011;36190;54.980;73.388;2023-11-19T05:12:58;7.00;;;2.53;;
50291;SDS011;36190;54.980;73.388;2023-11-19T05:15:25;4.32;;;2.25;;
50291;SDS011;36190;54.980;73.388;2023-11-19T05:17:53;6.18;;;2.03;;
50291;SDS011;36190;54.980;73.388;2023-11-19T05:20:20;6.30;;;2.47;;
50291;SDS011;36190;54.980;73.388;2023-11-19T05:22:49;7.97;;;2.40;;
50291;SDS011;36190;54.980;73.388;2023-11-19T05:25:18;4.70;;;1.98;;
50291;SDS011;36190;54.980;73.388;2023-11-19T05:27:46;4.22;;;1.88;;
50291;SDS011;36190;54.980;73.388;2023-11-19T05:30:14;3.72;;;1.90;;
50291;SDS011;36190;54.980;73.388;2023-11-19T05:32:41;4.63;;;2.20;;
50291;SDS011;36190;54.980;73.388;2023-11-19T05:35:09;6.72;;;2.72;;
50291;SDS011;36190;54.980;73.388;2023-11-19T05:37:36;5.55;;;2.20;;
50291;SDS011;36190;54.980;73.388;2023-11-19T05:40:06;7.03;;;2.35;;
50291;SDS011;36190;54.980;73.388;2023-11-19T05:42:39;5.95;;;2.38;;
50291;SDS011;36190;54.980;73.388;2023-11-19T05:45:07;6.10;;;2.35;;
50291;SDS011;36190;54.980;73.388;2023-11-19T05:47:37;3.53;;;1.80;;
50291;SDS011;36190;54.980;73.388;2023-11-19T05:50:04;6.63;;;2.42;;
50291;SDS011;36190;54.980;73.388;2023-11-19T05:52:33;6.82;;;2.33;;
50291;SDS011;36190;54.980;73.388;2023-11-19T05:55:01;5.55;;;2.15;;
50291;SDS011;36190;54.980;73.388;2023-11-19T05:57:31;3.80;;;1.90;;
50291;SDS011;36190;54.980;73.388;2023-11-19T06:00:00;3.63;;;1.83;;
50291;SDS011;36190;54.980;73.388;2023-11-19T06:02:29;5.10;;;1.70;;
50291;SDS011;36190;54.980;73.388;2023-11-19T06:04:56;2.15;;;1.58;;
50291;SDS011;36190;54.980;73.388;2023-11-19T06:07:24;5.10;;;1.60;;
50291;SDS011;36190;54.980;73.388;2023-11-19T06:09:51;4.35;;;1.73;;
50291;SDS011;36190;54.980;73.388;2023-11-19T06:12:19;4.70;;;2.10;;
50291;SDS011;36190;54.980;73.388;2023-11-19T06:14:48;5.20;;;2.20;;
50291;SDS011;36190;54.980;73.388;2023-11-19T06:17:15;5.28;;;2.00;;
50291;SDS011;36190;54.980;73.388;2023-11-19T06:19:43;4.85;;;1.92;;
50291;SDS011;36190;54.980;73.388;2023-11-19T06:22:11;5.70;;;2.42;;
50291;SDS011;36190;54.980;73.388;2023-11-19T06:24:39;4.82;;;2.05;;
50291;SDS011;36190;54.980;73.388;2023-11-19T06:27:06;4.95;;;2.20;;
50291;SDS011;36190;54.980;73.388;2023-11-19T06:29:34;5.65;;;2.30;;
50291;SDS011;36190;54.980;73.388;2023-11-19T06:32:05;3.63;;;1.80;;
50291;SDS011;36190;54.980;73.388;2023-11-19T06:34:33;4.35;;;1.67;;
50291;SDS011;36190;54.980;73.388;2023-11-19T06:37:01;3.42;;;1.67;;
50291;SDS011;36190;54.980;73.388;2023-11-19T06:39:29;9.50;;;2.33;;
50291;SDS011;36190;54.980;73.388;2023-11-19T06:41:57;5.30;;;2.45;;
50291;SDS011;36190;54.980;73.388;2023-11-19T06:44:24;5.85;;;2.28;;
50291;SDS011;36190;54.980;73.388;2023-11-19T06:46:52;3.83;;;1.70;;
50291;SDS011;36190;54.980;73.388;2023-11-19T06:49:21;3.90;;;1.77;;
50291;SDS011;36190;54.980;73.388;2023-11-19T06:51:48;2.92;;;1.60;;
50291;SDS011;36190;54.980;73.388;2023-11-19T06:54:16;3.50;;;1.60;;
50291;SDS011;36190;54.980;73.388;2023-11-19T06:56:43;2.80;;;1.63;;
50291;SDS011;36190;54.980;73.388;2023-11-19T06:59:11;4.55;;;1.80;;
50291;SDS011;36190;54.980;73.388;2023-11-19T07:01:39;3.33;;;2.00;;
50291;SDS011;36190;54.980;73.388;2023-11-19T07:04:10;4.55;;;1.85;;
50291;SDS011;36190;54.980;73.388;2023-11-19T07:06:39;5.30;;;1.63;;
50291;SDS011;36190;54.980;73.388;2023-11-19T07:09:07;3.42;;;1.80;;
50291;SDS011;36190;54.980;73.388;2023-11-19T07:11:36;3.88;;;1.73;;
50291;SDS011;36190;54.980;73.388;2023-11-19T07:14:04;3.45;;;1.83;;
50291;SDS011;36190;54.980;73.388;2023-11-19T07:16:32;3.58;;;1.63;;
50291;SDS011;36190;54.980;73.388;2023-11-19T07:19:00;5.15;;;1.70;;
50291;SDS011;36190;54.980;73.388;2023-11-19T07:21:27;3.00;;;1.70;;
50291;SDS011;36190;54.980;73.388;2023-11-19T07:23:56;2.42;;;1.75;;
50291;SDS011;36190;54.980;73.388;2023-11-19T07:26:24;3.53;;;1.65;;
50291;SDS011;36190;54.980;73.388;2023-11-19T07:28:52;4.38;;;1.88;;
50291;SDS011;36190;54.980;73.388;2023-11-19T07:31:20;3.85;;;1.80;;
50291;SDS011;36190;54.980;73.388;2023-11-19T07:33:49;3.70;;;1.50;;
50291;SDS011;36190;54.980;73.388;2023-11-19T07:36:16;4.43;;;2.13;;
50291;SDS011;36190;54.980;73.388;2023-11-19T07:38:45;5.25;;;1.75;;
50291;SDS011;36190;54.980;73.388;2023-11-19T07:41:14;3.22;;;1.52;;
50291;SDS011;36190;54.980;73.388;2023-11-19T07:43:43;2.28;;;1.65;;
50291;SDS011;36190;54.980;73.388;2023-11-19T07:46:11;3.17;;;1.60;;
50291;SDS011;36190;54.980;73.388;2023-11-19T07:48:39;3.92;;;1.90;;
50291;SDS011;36190;54.980;73.388;2023-11-19T07:51:07;4.00;;;1.63;;
50291;SDS011;36190;54.980;73.388;2023-11-19T07:53:35;4.57;;;1.90;;
50291;SDS011;36190;54.980;73.388;2023-11-19T07:56:04;3.10;;;1.48;;
50291;SDS011;36190;54.980;73.388;2023-11-19T07:58:33;3.83;;;1.92;;
50291;SDS011;36190;54.980;73.388;2023-11-19T08:01:01;5.30;;;2.00;;
50291;SDS011;36190;54.980;73.388;2023-11-19T08:03:30;4.10;;;1.92;;
50291;SDS011;36190;54.980;73.388;2023-11-19T08:05:59;4.75;;;1.80;;
50291;SDS011;36190;54.980;73.388;2023-11-19T08:08:28;3.13;;;1.80;;
50291;SDS011;36190;54.980;73.388;2023-11-19T08:10:57;5.03;;;2.17;;
50291;SDS011;36190;54.980;73.388;2023-11-19T08:13:25;5.05;;;2.13;;
50291;SDS011;36190;54.980;73.388;2023-11-19T08:15:54;6.25;;;2.42;;
50291;SDS011;36190;54.980;73.388;2023-11-19T08:18:22;6.00;;;2.10;;
50291;SDS011;36190;54.980;73.388;2023-11-19T08:20:49;6.22;;;2.20;;
50291;SDS011;36190;54.980;73.388;2023-11-19T08:23:18;6.32;;;2.38;;
50291;SDS011;36190;54.980;73.388;2023-11-19T08:25:49;7.65;;;2.20;;
50291;SDS011;36190;54.980;73.388;2023-11-19T08:28:16;4.50;;;2.13;;
50291;SDS011;36190;54.980;73.388;2023-11-19T08:30:43;4.18;;;2.03;;
50291;SDS011;36190;54.980;73.388;2023-11-19T08:33:13;4.22;;;1.90;;
50291;SDS011;36190;54.980;73.388;2023-11-19T08:35:40;3.92;;;1.83;;
50291;SDS011;36190;54.980;73.388;2023-11-19T08:38:08;3.25;;;1.65;;
50291;SDS011;36190;54.980;73.388;2023-11-19T08:40:35;5.25;;;1.83;;
50291;SDS011;36190;54.980;73.388;2023-11-19T08:43:04;4.20;;;1.90;;
50291;SDS011;36190;54.980;73.388;2023-11-19T08:45:31;4.05;;;1.80;;
50291;SDS011;36190;54.980;73.388;2023-11-19T08:47:59;2.75;;;1.70;;
50291;SDS011;36190;54.980;73.388;2023-11-19T08:50:28;4.95;;;1.88;;
50291;SDS011;36190;54.980;73.388;2023-11-19T08:52:55;4.95;;;2.20;;
50291;SDS011;36190;54.980;73.388;2023-11-19T08:55:23;4.72;;;1.95;;
50291;SDS011;36190;54.980;73.388;2023-11-19T08:57:51;5.47;;;2.28;;
50291;SDS011;36190;54.980;73.388;2023-11-19T09:00:19;5.05;;;2.28;;
50291;SDS011;36190;54.980;73.388;2023-11-19T09:02:46;6.05;;;2.25;;
50291;SDS011;36190;54.980;73.388;2023-11-19T09:05:14;5.30;;;2.30;;
50291;SDS011;36190;54.980;73.388;2023-11-19T09:07:43;2.70;;;1.60;;
50291;SDS011;36190;54.980;73.388;2023-11-19T09:10:10;7.55;;;2.42;;
50291;SDS011;36190;54.980;73.388;2023-11-19T09:12:38;4.70;;;1.83;;
50291;SDS011;36190;54.980;73.388;2023-11-19T09:15:06;4.03;;;1.90;;
50291;SDS011;36190;54.980;73.388;2023-11-19T09:17:35;3.95;;;1.77;;
50291;SDS011;36190;54.980;73.388;2023-11-19T09:20:03;3.78;;;1.60;;
50291;SDS011;36190;54.980;73.388;2023-11-19T09:22:32;2.70;;;1.48;;
50291;SDS011;36190;54.980;73.388;2023-11-19T09:25:01;3.50;;;1.50;;
50291;SDS011;36190;54.980;73.388;2023-11-19T09:27:28;4.88;;;1.80;;
50291;SDS011;36190;54.980;73.388;2023-11-19T09:29:54;2.67;;;1.70;;
50291;SDS011;36190;54.980;73.388;2023-11-19T09:32:23;4.82;;;1.52;;
50291;SDS011;36190;54.980;73.388;2023-11-19T09:34:51;5.65;;;2.08;;
50291;SDS011;36190;54.980;73.388;2023-11-19T09:37:19;6.97;;;2.70;;
50291;SDS011;36190;54.980;73.388;2023-11-19T09:39:46;6.95;;;2.67;;
50291;SDS011;36190;54.980;73.388;2023-11-19T09:42:15;9.20;;;2.83;;
50291;SDS011;36190;54.980;73.388;2023-11-19T09:44:43;4.68;;;2.25;;
50291;SDS011;36190;54.980;73.388;2023-11-19T09:47:11;6.35;;;2.47;;
50291;SDS011;36190;54.980;73.388;2023-11-19T09:49:41;5.75;;;2.40;;
50291;SDS011;36190;54.980;73.388;2023-11-19T09:52:09;4.65;;;2.20;;
50291;SDS011;36190;54.980;73.388;2023-11-19T09:54:36;1.77;;;1.60;;
50291;SDS011;36190;54.980;73.388;2023-11-19T09:57:04;4.15;;;1.80;;
50291;SDS011;36190;54.980;73.388;2023-11-19T09:59:36;3.97;;;1.90;;
50291;SDS011;36190;54.980;73.388;2023-11-19T10:02:06;6.85;;;1.77;;
50291;SDS011;36190;54.980;73.388;2023-11-19T10:04:34;4.18;;;1.83;;
50291;SDS011;36190;54.980;73.388;2023-11-19T10:07:03;4.78;;;1.73;;
50291;SDS011;36190;54.980;73.388;2023-11-19T10:09:31;3.47;;;1.60;;
50291;SDS011;36190;54.980;73.388;2023-11-19T10:11:58;3.83;;;2.28;;
50291;SDS011;36190;54.980;73.388;2023-11-19T10:14:27;4.90;;;2.17;;
50291;SDS011;36190;54.980;73.388;2023-11-19T10:17:00;6.35;;;2.78;;
50291;SDS011;36190;54.980;73.388;2023-11-19T10:19:29;5.93;;;2.50;;
50291;SDS011;36190;54.980;73.388;2023-11-19T10:22:01;5.85;;;2.60;;
50291;SDS011;36190;54.980;73.388;2023-11-19T10:24:31;4.55;;;1.90;;
50291;SDS011;36190;54.980;73.388;2023-11-19T10:26:59;4.28;;;2.05;;
50291;SDS011;36190;54.980;73.388;2023-11-19T10:29:29;4.57;;;1.80;;
50291;SDS011;36190;54.980;73.388;2023-11-19T10:31:57;3.83;;;1.70;;
50291;SDS011;36190;54.980;73.388;2023-11-19T10:34:26;6.90;;;2.25;;
50291;SDS011;36190;54.980;73.388;2023-11-19T10:36:55;6.30;;;2.00;;
50291;SDS011;36190;54.980;73.388;2023-11-19T10:39:23;3.65;;;1.80;;
50291;SDS011;36190;54.980;73.388;2023-11-19T10:41:51;5.68;;;2.08;;
50291;SDS011;36190;54.980;73.388;2023-11-19T10:44:31;5.07;;;2.10;;
50291;SDS011;36190;54.980;73.388;2023-11-19T10:47:01;4.43;;;2.20;;
50291;SDS011;36190;54.980;73.388;2023-11-19T10:49:33;6.72;;;2.17;;
50291;SDS011;36190;54.980;73.388;2023-11-19T10:52:01;4.35;;;1.88;;
50291;SDS011;36190;54.980;73.388;2023-11-19T10:54:35;2.72;;;1.70;;
50291;SDS011;36190;54.980;73.388;2023-11-19T10:57:04;4.93;;;2.00;;
50291;SDS011;36190;54.980;73.388;2023-11-19T10:59:35;6.57;;;2.17;;
50291;SDS011;36190;54.980;73.388;2023-11-19T11:02:06;3.97;;;2.00;;
50291;SDS011;36190;54.980;73.388;2023-11-19T11:04:44;6.03;;;1.60;;
50291;SDS011;36190;54.980;73.388;2023-11-19T11:07:16;5.18;;;2.17;;
50291;SDS011;36190;54.980;73.388;2023-11-19T11:09:48;4.77;;;2.00;;
50291;SDS011;36190;54.980;73.388;2023-11-19T11:12:16;5.82;;;2.25;;
50291;SDS011;36190;54.980;73.388;2023-11-19T11:14:49;4.45;;;1.90;;
50291;SDS011;36190;54.980;73.388;2023-11-19T11:17:17;5.23;;;2.10;;
50291;SDS011;36190;54.980;73.388;2023-11-19T11:19:46;4.82;;;1.92;;
50291;SDS011;36190;54.980;73.388;2023-11-19T11:22:14;6.18;;;2.45;;
50291;SDS011;36190;54.980;73.388;2023-11-19T11:25:03;7.18;;;2.58;;
50291;SDS011;36190;54.980;73.388;2023-11-19T11:30:45;8.77;;;2.38;;
50291;SDS011;36190;54.980;73.388;2023-11-19T11:33:26;7.43;;;3.00;;
50291;SDS011;36190;54.980;73.388;2023-11-19T11:36:05;4.57;;;1.83;;
50291;SDS011;36190;54.980;73.388;2023-11-19T11:38:40;6.63;;;2.20;;
50291;SDS011;36190;54.980;73.388;2023-11-19T11:41:18;6.82;;;2.40;;
50291;SDS011;36190;54.980;73.388;2023-11-19T11:43:47;5.83;;;2.27;;
50291;SDS011;36190;54.980;73.388;2023-11-19T11:49:26;8.73;;;3.35;;
50291;SDS011;36190;54.980;73.388;2023-11-19T11:52:03;5.57;;;2.17;;
50291;SDS011;36190;54.980;73.388;2023-11-19T11:54:31;4.05;;;2.28;;
50291;SDS011;36190;54.980;73.388;2023-11-19T11:57:03;6.03;;;2.20;;
50291;SDS011;36190;54.980;73.388;2023-11-19T11:59:37;5.38;;;2.25;;
50291;SDS011;36190;54.980;73.388;2023-11-19T12:02:15;8.88;;;3.30;;
50291;SDS011;36190;54.980;73.388;2023-11-19T12:04:46;7.55;;;2.80;;
50291;SDS011;36190;54.980;73.388;2023-11-19T12:07:17;6.90;;;2.87;;
50291;SDS011;36190;54.980;73.388;2023-11-19T12:09:47;8.18;;;3.03;;
50291;SDS011;36190;54.980;73.388;2023-11-19T12:12:20;6.05;;;2.20;;
50291;SDS011;36190;54.980;73.388;2023-11-19T12:15:07;8.90;;;3.03;;
50291;SDS011;36190;54.980;73.388;2023-11-19T12:17:43;8.63;;;2.67;;
50291;SDS011;36190;54.980;73.388;2023-11-19T12:20:16;11.57;;;3.73;;
50291;SDS011;36190;54.980;73.388;2023-11-19T12:22:46;8.82;;;3.17;;
50291;SDS011;36190;54.980;73.388;2023-11-19T12:25:14;9.30;;;3.47;;
50291;SDS011;36190;54.980;73.388;2023-11-19T12:27:43;11.52;;;4.03;;
50291;SDS011;36190;54.980;73.388;2023-11-19T12:30:12;9.70;;;3.45;;
50291;SDS011;36190;54.980;73.388;2023-11-19T12:32:43;13.90;;;5.25;;
50291;SDS011;36190;54.980;73.388;2023-11-19T12:35:12;13.05;;;5.00;;
50291;SDS011;36190;54.980;73.388;2023-11-19T12:37:40;10.30;;;3.75;;
50291;SDS011;36190;54.980;73.388;2023-11-19T12:40:14;9.67;;;3.70;;
50291;SDS011;36190;54.980;73.388;2023-11-19T12:42:42;8.35;;;3.08;;
50291;SDS011;36190;54.980;73.388;2023-11-19T12:45:10;10.10;;;3.43;;
50291;SDS011;36190;54.980;73.388;2023-11-19T12:47:38;8.50;;;3.17;;
50291;SDS011;36190;54.980;73.388;2023-11-19T12:50:07;10.57;;;3.60;;
50291;SDS011;36190;54.980;73.388;2023-11-19T12:52:36;11.03;;;3.80;;
50291;SDS011;36190;54.980;73.388;2023-11-19T12:55:04;13.55;;;4.25;;
50291;SDS011;36190;54.980;73.388;2023-11-19T12:57:41;9.63;;;3.63;;
50291;SDS011;36190;54.980;73.388;2023-11-19T13:00:18;11.37;;;3.90;;
50291;SDS011;36190;54.980;73.388;2023-11-19T13:02:47;9.33;;;3.60;;
50291;SDS011;36190;54.980;73.388;2023-11-19T13:05:26;7.95;;;3.15;;
50291;SDS011;36190;54.980;73.388;2023-11-19T13:08:02;10.47;;;4.13;;
50291;SDS011;36190;54.980;73.388;2023-11-19T13:10:31;8.23;;;3.08;;
50291;SDS011;36190;54.980;73.388;2023-11-19T13:13:01;8.77;;;3.63;;
50291;SDS011;36190;54.980;73.388;2023-11-19T13:15:33;8.00;;;2.78;;
50291;SDS011;36190;54.980;73.388;2023-11-19T13:18:01;9.47;;;3.50;;
50291;SDS011;36190;54.980;73.388;2023-11-19T13:20:29;6.70;;;2.50;;
50291;SDS011;36190;54.980;73.388;2023-11-19T13:22:58;8.57;;;3.27;;
50291;SDS011;36190;54.980;73.388;2023-11-19T13:25:26;7.50;;;2.90;;
50291;SDS011;36190;54.980;73.388;2023-11-19T13:27:54;6.77;;;2.63;;
50291;SDS011;36190;54.980;73.388;2023-11-19T13:30:23;7.13;;;2.78;;
50291;SDS011;36190;54.980;73.388;2023-11-19T13:32:52;6.80;;;2.53;;
50291;SDS011;36190;54.980;73.388;2023-11-19T13:35:20;5.83;;;2.67;;
50291;SDS011;36190;54.980;73.388;2023-11-19T13:37:48;8.43;;;3.07;;
50291;SDS011;36190;54.980;73.388;2023-11-19T13:40:17;10.10;;;3.60;;
50291;SDS011;36190;54.980;73.388;2023-11-19T13:42:44;9.97;;;3.43;;
50291;SDS011;36190;54.980;73.388;2023-11-19T13:45:12;9.17;;;3.33;;
50291;SDS011;36190;54.980;73.388;2023-11-19T13:47:43;11.23;;;3.67;;
50291;SDS011;36190;54.980;73.388;2023-11-19T13:50:12;13.80;;;4.80;;
50291;SDS011;36190;54.980;73.388;2023-11-19T13:52:41;11.20;;;4.33;;
50291;SDS011;36190;54.980;73.388;2023-11-19T13:55:11;13.10;;;4.80;;
50291;SDS011;36190;54.980;73.388;2023-11-19T13:57:39;11.83;;;4.30;;
50291;SDS011;36190;54.980;73.388;2023-11-19T14:00:09;11.50;;;3.90;;
50291;SDS011;36190;54.980;73.388;2023-11-19T14:02:38;10.73;;;3.80;;
50291;SDS011;36190;54.980;73.388;2023-11-19T14:05:07;11.83;;;4.47;;
50291;SDS011;36190;54.980;73.388;2023-11-19T14:07:36;11.10;;;4.07;;
50291;SDS011;36190;54.980;73.388;2023-11-19T14:10:04;10.77;;;4.30;;
50291;SDS011;36190;54.980;73.388;2023-11-19T14:12:33;12.57;;;4.63;;
50291;SDS011;36190;54.980;73.388;2023-11-19T14:15:02;8.10;;;3.50;;
50291;SDS011;36190;54.980;73.388;2023-11-19T14:17:31;10.23;;;3.23;;
50291;SDS011;36190;54.980;73.388;2023-11-19T14:19:59;13.10;;;4.17;;
50291;SDS011;36190;54.980;73.388;2023-11-19T14:22:28;10.13;;;3.73;;
50291;SDS011;36190;54.980;73.388;2023-11-19T14:24:56;10.47;;;4.17;;
50291;SDS011;36190;54.980;73.388;2023-11-19T14:27:24;12.93;;;4.27;;
50291;SDS011;36190;54.980;73.388;2023-11-19T14:29:51;10.60;;;3.90;;
50291;SDS011;36190;54.980;73.388;2023-11-19T14:32:19;10.87;;;4.13;;
50291;SDS011;36190;54.980;73.388;2023-11-19T14:34:46;10.70;;;4.20;;
50291;SDS011;36190;54.980;73.388;2023-11-19T14:37:14;13.67;;;4.33;;
50291;SDS011;36190;54.980;73.388;2023-11-19T14:39:43;12.83;;;4.10;;
50291;SDS011;36190;54.980;73.388;2023-11-19T14:42:11;13.50;;;4.47;;
50291;SDS011;36190;54.980;73.388;2023-11-19T14:44:39;12.23;;;4.00;;
50291;SDS011;36190;54.980;73.388;2023-11-19T14:47:07;13.57;;;4.20;;
50291;SDS011;36190;54.980;73.388;2023-11-19T14:49:35;12.83;;;4.83;;